createdAt,value
2017-09-15T00:01:38.315Z,75.88
2017-09-15T00:04:11.029Z,75.89
2017-09-15T00:06:43.094Z,75.90
2017-09-15T00:09:26.068Z,75.95
2017-09-15T00:11:58.766Z,75.88
2017-09-15T00:14:31.567Z,76.00
2017-09-15T00:17:04.041Z,76.00
2017-09-15T00:19:38.249Z,76.11
2017-09-15T00:22:10.317Z,76.04
2017-09-15T00:24:42.990Z,76.46
2017-09-15T00:27:16.283Z,76.33
2017-09-15T00:29:48.286Z,76.47
2017-09-15T00:32:21.443Z,76.65
2017-09-15T00:34:54.452Z,76.70
2017-09-15T00:37:25.418Z,76.55
2017-09-15T00:40:02.276Z,76.56
2017-09-15T00:42:36.105Z,77.36
2017-09-15T00:45:08.522Z,77.79
2017-09-15T00:47:40.380Z,76.89
2017-09-15T00:50:09.565Z,76.94
2017-09-15T00:52:42.505Z,77.50
2017-09-15T00:55:16.244Z,77.60
2017-09-15T00:57:52.517Z,77.62
2017-09-15T01:00:23.670Z,77.69
2017-09-15T01:02:56.367Z,77.25
2017-09-15T01:05:29.820Z,78.01
2017-09-15T01:08:01.165Z,78.23
2017-09-15T01:10:35.217Z,78.35
2017-09-15T01:13:08.586Z,78.19
2017-09-15T01:15:42.105Z,78.47
2017-09-15T01:18:13.114Z,78.58
2017-09-15T01:20:45.821Z,78.56
2017-09-15T01:23:19.472Z,78.44
2017-09-15T01:25:51.466Z,78.54
2017-09-15T01:28:24.331Z,79.00
2017-09-15T01:30:55.372Z,78.85
2017-09-15T01:33:26.664Z,78.77
2017-09-15T01:35:58.355Z,78.46
2017-09-15T01:38:32.098Z,78.35
2017-09-15T01:41:04.868Z,78.71
2017-09-15T01:43:38.092Z,78.73
2017-09-15T01:46:11.599Z,78.99
2017-09-15T01:48:43.787Z,78.74
2017-09-15T01:51:16.533Z,78.32
2017-09-15T01:53:47.691Z,78.58
2017-09-15T01:56:19.907Z,78.47
2017-09-15T01:58:53.811Z,78.59
2017-09-15T02:01:26.343Z,78.73
2017-09-15T02:04:04.351Z,78.50
2017-09-15T02:06:39.321Z,78.56
2017-09-15T02:09:13.233Z,78.51
2017-09-15T02:11:49.060Z,78.52
2017-09-15T02:14:20.333Z,79.00
2017-09-15T02:16:51.967Z,79.10
2017-09-15T02:19:26.632Z,78.87
2017-09-15T02:21:59.175Z,78.94
2017-09-15T02:24:31.623Z,78.91
2017-09-15T02:27:05.633Z,78.85
2017-09-15T02:29:36.017Z,78.90
2017-09-15T02:32:06.236Z,78.36
2017-09-15T02:34:35.825Z,78.29
2017-09-15T02:37:10.113Z,79.03
2017-09-15T02:39:42.392Z,78.65
2017-09-15T02:42:14.451Z,78.77
2017-09-15T02:44:47.717Z,78.61
2017-09-15T02:47:19.431Z,78.25
2017-09-15T02:49:51.422Z,78.33
2017-09-15T02:52:22.995Z,78.11
2017-09-15T02:54:55.543Z,78.00
2017-09-15T02:57:28.231Z,78.07
2017-09-15T03:00:01.862Z,78.03
2017-09-15T03:02:33.850Z,78.11
2017-09-15T03:05:06.183Z,78.26
2017-09-15T03:07:37.779Z,78.25
2017-09-15T03:10:11.529Z,78.36
2017-09-15T03:12:45.000Z,78.32
2017-09-15T03:15:16.937Z,78.25
2017-09-15T03:17:49.383Z,78.22
2017-09-15T03:20:20.310Z,78.16
2017-09-15T03:22:52.052Z,78.21
2017-09-15T03:25:23.504Z,78.18
2017-09-15T03:27:55.433Z,78.45
2017-09-15T03:30:27.920Z,78.21
2017-09-15T03:33:00.579Z,78.30
2017-09-15T03:35:34.527Z,78.19
2017-09-15T03:38:05.146Z,78.28
2017-09-15T03:40:40.256Z,78.32
2017-09-15T03:43:13.660Z,78.31
2017-09-15T03:45:46.544Z,78.33
2017-09-15T03:48:18.810Z,78.34
2017-09-15T03:50:51.627Z,78.40
2017-09-15T03:53:25.887Z,78.49
2017-09-15T03:55:58.354Z,78.47
2017-09-15T03:58:31.584Z,78.37
2017-09-15T04:01:07.446Z,78.36
2017-09-15T04:03:38.608Z,78.48
2017-09-15T04:06:13.331Z,78.70
2017-09-15T04:08:48.070Z,78.59
2017-09-15T04:11:18.470Z,78.48
2017-09-15T04:13:51.680Z,78.55
2017-09-15T04:16:27.684Z,78.50
2017-09-15T04:18:59.606Z,78.67
2017-09-15T04:21:33.312Z,78.56
2017-09-15T04:24:06.057Z,78.50
2017-09-15T04:26:39.081Z,78.53
2017-09-15T04:29:14.798Z,78.58
2017-09-15T04:31:44.826Z,78.65
2017-09-15T04:34:15.118Z,78.47
2017-09-15T04:36:45.630Z,78.48
2017-09-15T04:39:17.236Z,78.52
2017-09-15T04:41:48.197Z,78.46
2017-09-15T04:44:20.360Z,78.66
2017-09-15T04:46:52.146Z,78.53
2017-09-15T04:49:27.247Z,78.53
2017-09-15T04:52:00.406Z,78.47
2017-09-15T04:54:32.747Z,78.54
2017-09-15T04:57:04.747Z,78.52
2017-09-15T04:59:34.999Z,78.57
2017-09-15T05:02:07.461Z,78.56
2017-09-15T05:04:41.622Z,78.55
2017-09-15T05:07:15.468Z,78.55
2017-09-15T05:09:51.411Z,78.55
2017-09-15T05:12:23.704Z,78.58
2017-09-15T05:14:57.109Z,78.55
2017-09-15T05:17:28.983Z,78.58
2017-09-15T05:20:01.780Z,78.67
2017-09-15T05:22:35.587Z,78.65
2017-09-15T05:25:09.662Z,78.81
2017-09-15T05:27:42.362Z,78.64
2017-09-15T05:30:15.383Z,78.65
2017-09-15T05:32:48.842Z,78.80
2017-09-15T05:35:20.766Z,78.96
2017-09-15T05:37:54.135Z,78.85
2017-09-15T05:40:25.757Z,78.79
2017-09-15T05:42:58.697Z,78.81
2017-09-15T05:45:31.534Z,78.90
2017-09-15T05:48:08.319Z,78.91
2017-09-15T05:50:39.301Z,79.07
2017-09-15T05:53:11.749Z,79.00
2017-09-15T05:55:42.556Z,78.95
2017-09-15T05:58:15.487Z,78.99
2017-09-15T06:00:47.967Z,78.99
2017-09-15T06:03:19.910Z,79.12
2017-09-15T06:05:53.290Z,79.16
2017-09-15T06:08:25.533Z,79.27
2017-09-15T06:10:58.679Z,79.69
2017-09-15T06:13:35.244Z,80.01
2017-09-15T06:16:07.981Z,79.83
2017-09-15T06:18:39.874Z,79.41
2017-09-15T06:21:11.796Z,80.01
2017-09-15T06:23:43.405Z,79.94
2017-09-15T06:26:14.916Z,80.24
2017-09-15T06:28:46.947Z,80.34
2017-09-15T06:31:21.478Z,80.50
2017-09-15T06:33:53.993Z,80.32
2017-09-15T06:36:25.130Z,80.38
2017-09-15T06:38:56.746Z,80.20
2017-09-15T06:41:30.996Z,80.19
2017-09-15T06:44:03.586Z,80.26
2017-09-15T06:46:36.488Z,80.41
2017-09-15T06:49:08.115Z,80.36
2017-09-15T06:51:39.576Z,80.48
2017-09-15T06:54:12.107Z,80.55
2017-09-15T06:56:43.113Z,80.40
2017-09-15T06:59:13.366Z,80.43
2017-09-15T07:01:45.698Z,80.61
2017-09-15T07:04:18.633Z,80.55
2017-09-15T07:06:50.231Z,80.74
2017-09-15T07:09:23.126Z,80.60
2017-09-15T07:11:55.511Z,80.58
2017-09-15T07:14:28.634Z,80.60
2017-09-15T07:17:02.194Z,80.55
2017-09-15T07:19:35.962Z,80.50
2017-09-15T07:22:08.338Z,80.43
2017-09-15T07:24:42.806Z,80.36
2017-09-15T07:27:15.808Z,80.26
2017-09-15T07:29:47.231Z,80.21
2017-09-15T07:32:19.247Z,80.17
2017-09-15T07:34:51.674Z,80.12
2017-09-15T07:37:24.839Z,80.19
2017-09-15T07:39:59.235Z,80.08
2017-09-15T07:42:30.999Z,80.07
2017-09-15T07:45:05.940Z,80.05
2017-09-15T07:47:38.572Z,80.12
2017-09-15T07:50:10.906Z,80.19
2017-09-15T07:52:44.651Z,80.20
2017-09-15T07:55:21.343Z,80.11
2017-09-15T07:57:53.592Z,80.10
2017-09-15T08:00:26.688Z,79.86
2017-09-15T08:02:58.785Z,79.96
2017-09-15T08:05:35.034Z,80.08
2017-09-15T08:08:08.955Z,80.34
2017-09-15T08:10:39.808Z,80.34
2017-09-15T08:13:12.880Z,80.42
2017-09-15T08:15:42.612Z,80.34
2017-09-15T08:18:15.682Z,80.51
2017-09-15T08:20:47.929Z,80.38
2017-09-15T08:23:21.090Z,80.46
2017-09-15T08:25:53.249Z,80.51
2017-09-15T08:28:26.352Z,80.39
2017-09-15T08:30:57.665Z,80.20
2017-09-15T08:33:31.725Z,80.72
2017-09-15T08:36:01.957Z,80.01
2017-09-15T08:38:37.203Z,79.84
2017-09-15T08:41:10.315Z,80.09
2017-09-15T08:43:45.096Z,79.67
2017-09-15T08:46:18.515Z,79.80
2017-09-15T08:48:50.013Z,80.04
2017-09-15T08:51:25.000Z,80.17
2017-09-15T08:54:00.124Z,79.95
2017-09-15T08:56:31.738Z,80.12
2017-09-15T08:59:03.664Z,79.84
2017-09-15T09:01:38.209Z,79.89
2017-09-15T09:04:10.297Z,79.76
2017-09-15T09:06:43.483Z,79.55
2017-09-15T09:09:14.827Z,79.35
2017-09-15T09:11:45.986Z,79.11
2017-09-15T09:14:19.042Z,78.90
2017-09-15T09:16:47.712Z,79.04
2017-09-15T09:19:16.360Z,78.98
2017-09-15T09:21:49.792Z,78.96
2017-09-15T09:24:26.109Z,78.74
2017-09-15T09:26:59.755Z,78.75
2017-09-15T09:29:31.095Z,78.43
2017-09-15T09:32:02.755Z,78.33
2017-09-15T09:37:23.184Z,77.62
2017-09-15T09:39:56.227Z,77.05
2017-09-15T09:42:30.987Z,77.24
2017-09-15T09:45:05.011Z,77.47
2017-09-15T09:47:38.091Z,77.46
2017-09-15T09:50:12.028Z,77.43
2017-09-15T09:52:45.158Z,77.17
2017-09-15T09:55:17.626Z,76.87
2017-09-15T09:57:50.322Z,76.93
2017-09-15T10:00:24.091Z,77.04
2017-09-15T10:02:58.112Z,76.70
2017-09-15T10:05:37.075Z,76.35
2017-09-15T10:08:10.590Z,76.94
2017-09-15T10:10:44.869Z,76.62
2017-09-15T10:13:18.102Z,76.76
2017-09-15T10:15:50.232Z,76.50
2017-09-15T10:18:23.647Z,76.40
2017-09-15T10:20:54.888Z,76.67
2017-09-15T10:23:26.079Z,76.43
2017-09-15T10:25:58.890Z,75.98
2017-09-15T10:28:35.262Z,76.40
2017-09-15T10:31:08.597Z,76.11
2017-09-15T10:33:45.566Z,76.18
2017-09-15T10:36:18.001Z,75.97
2017-09-15T10:38:50.708Z,75.74
2017-09-15T10:41:24.394Z,75.79
2017-09-15T10:43:58.489Z,75.69
2017-09-15T10:46:30.445Z,75.75
2017-09-15T10:49:01.715Z,75.59
2017-09-15T10:51:34.874Z,75.28
2017-09-15T10:54:06.430Z,75.32
2017-09-15T10:56:39.338Z,75.75
2017-09-15T10:59:16.870Z,75.79
2017-09-15T11:01:48.362Z,75.92
2017-09-15T11:04:23.066Z,75.83
2017-09-15T11:06:56.093Z,75.70
2017-09-15T11:09:26.991Z,75.61
2017-09-15T11:11:59.983Z,75.41
2017-09-15T11:14:36.532Z,75.26
2017-09-15T11:17:10.102Z,75.30
2017-09-15T11:19:43.311Z,74.99
2017-09-15T11:22:14.850Z,75.37
2017-09-15T11:24:45.200Z,74.70
2017-09-15T11:27:18.255Z,74.55
2017-09-15T11:29:50.467Z,74.35
2017-09-15T11:32:21.707Z,74.39
2017-09-15T11:34:54.553Z,74.83
2017-09-15T11:37:27.279Z,75.13
2017-09-15T11:40:01.926Z,74.76
2017-09-15T11:42:35.033Z,74.96
2017-09-15T11:45:10.394Z,74.75
2017-09-15T11:47:44.642Z,74.99
2017-09-15T11:50:18.328Z,74.67
2017-09-15T11:52:52.227Z,75.03
2017-09-15T11:55:25.428Z,74.80
2017-09-15T11:57:57.617Z,74.80
2017-09-15T12:00:29.790Z,74.35
2017-09-15T12:03:01.440Z,74.09
2017-09-15T12:05:35.192Z,74.37
2017-09-15T12:08:07.856Z,74.68
2017-09-15T12:10:40.548Z,74.59
2017-09-15T12:13:16.101Z,73.90
2017-09-15T12:15:48.835Z,73.89
2017-09-15T12:18:21.449Z,73.91
2017-09-15T12:20:54.078Z,73.35
2017-09-15T12:23:28.076Z,73.77
2017-09-15T12:26:03.739Z,73.66
2017-09-15T12:28:38.209Z,73.47
2017-09-15T12:31:08.900Z,72.95
2017-09-15T12:33:41.677Z,72.90
2017-09-15T12:36:13.678Z,72.46
2017-09-15T12:38:45.497Z,72.76
2017-09-15T12:41:16.753Z,72.07
2017-09-15T12:43:50.265Z,72.10
2017-09-15T12:46:24.769Z,72.00
2017-09-15T12:48:59.243Z,72.18
2017-09-15T12:51:33.711Z,72.08
2017-09-15T12:54:06.727Z,72.15
2017-09-15T12:56:39.699Z,71.96
2017-09-15T12:59:16.605Z,72.68
2017-09-15T13:01:48.970Z,72.91
2017-09-15T13:04:21.539Z,72.82
2017-09-15T13:06:54.173Z,72.79
2017-09-15T13:09:25.880Z,72.58
2017-09-15T13:11:58.684Z,72.22
2017-09-15T13:14:33.752Z,72.25
2017-09-15T13:17:09.607Z,72.13
2017-09-15T13:19:42.037Z,72.00
2017-09-15T13:22:15.267Z,72.35
2017-09-15T13:24:49.385Z,72.78
2017-09-15T13:27:21.106Z,72.57
2017-09-15T13:29:54.602Z,72.44
2017-09-15T13:32:26.246Z,72.18
2017-09-15T13:35:00.565Z,72.00
2017-09-15T13:37:33.150Z,71.89
2017-09-15T13:40:07.162Z,72.10
2017-09-15T13:42:38.292Z,71.85
2017-09-15T13:45:08.912Z,71.69
2017-09-15T13:47:42.195Z,72.57
2017-09-15T13:50:13.917Z,72.10
2017-09-15T13:52:46.605Z,72.19
2017-09-15T13:55:19.746Z,72.19
2017-09-15T13:57:50.637Z,72.41
2017-09-15T14:00:24.796Z,72.06
2017-09-15T14:02:59.039Z,71.69
2017-09-15T14:05:31.119Z,71.68
2017-09-15T14:08:01.420Z,70.98
2017-09-15T14:10:37.652Z,71.09
2017-09-15T14:13:08.288Z,71.50
2017-09-15T14:15:40.361Z,71.20
2017-09-15T14:18:11.827Z,70.87
2017-09-15T14:20:44.294Z,70.69
2017-09-15T14:23:17.459Z,70.71
2017-09-15T14:25:49.772Z,70.72
2017-09-15T14:28:21.497Z,70.57
2017-09-15T14:30:50.821Z,71.21
2017-09-15T14:33:23.757Z,71.17
2017-09-15T14:35:59.268Z,71.02
2017-09-15T14:38:33.854Z,71.45
2017-09-15T14:41:09.045Z,70.84
2017-09-15T14:43:45.145Z,70.92
2017-09-15T14:46:20.018Z,71.01
2017-09-15T14:48:51.224Z,71.05
2017-09-15T14:51:23.338Z,70.84
2017-09-15T14:53:58.007Z,70.76
2017-09-15T14:56:31.879Z,71.09
2017-09-15T14:59:04.891Z,71.23
2017-09-15T15:01:35.096Z,70.86
2017-09-15T15:04:07.945Z,71.08
2017-09-15T15:06:41.890Z,71.23
2017-09-15T15:09:14.467Z,71.40
2017-09-15T15:11:45.482Z,71.48
2017-09-15T15:14:17.283Z,71.24
2017-09-15T15:16:47.887Z,70.99
2017-09-15T15:19:19.729Z,71.53
2017-09-15T15:21:52.027Z,71.01
2017-09-15T15:24:24.033Z,70.40
2017-09-15T15:26:56.760Z,70.62
2017-09-15T15:29:29.790Z,69.96
2017-09-15T15:32:02.574Z,70.30
2017-09-15T15:34:34.377Z,70.29
2017-09-15T15:37:06.593Z,70.37
2017-09-15T15:39:44.068Z,70.16
2017-09-15T15:42:17.330Z,70.78
2017-09-15T15:44:47.963Z,70.54
2017-09-15T15:47:19.139Z,70.65
2017-09-15T15:49:50.620Z,70.62
2017-09-15T15:52:22.748Z,70.39
2017-09-15T15:54:55.429Z,70.83
2017-09-15T15:57:28.363Z,70.62
2017-09-15T15:59:59.768Z,70.66
2017-09-15T16:02:30.523Z,70.59
2017-09-15T16:05:01.309Z,70.53
2017-09-15T16:07:35.673Z,70.58
2017-09-15T16:10:08.483Z,70.80
2017-09-15T16:12:43.124Z,70.90
2017-09-15T16:15:15.355Z,71.12
2017-09-15T16:17:47.282Z,71.09
2017-09-15T16:20:20.118Z,71.28
2017-09-15T16:22:59.352Z,71.02
2017-09-15T16:25:31.360Z,70.68
2017-09-15T16:28:06.986Z,70.76
2017-09-15T16:30:39.297Z,70.53
2017-09-15T16:33:12.998Z,70.52
2017-09-15T16:35:45.883Z,70.72
2017-09-15T16:38:24.611Z,70.97
2017-09-15T16:41:00.790Z,70.59
2017-09-15T16:43:39.714Z,70.11
2017-09-15T16:46:17.372Z,70.38
2017-09-15T16:48:55.144Z,70.63
2017-09-15T16:51:27.593Z,70.54
2017-09-15T16:53:59.855Z,70.56
2017-09-15T16:56:31.895Z,70.22
2017-09-15T16:59:03.462Z,70.40
2017-09-15T17:01:38.068Z,70.37
2017-09-15T17:04:11.221Z,70.38
2017-09-15T17:06:43.823Z,70.43
2017-09-15T17:09:15.303Z,70.43
2017-09-15T17:11:47.154Z,70.21
2017-09-15T17:14:18.641Z,70.54
2017-09-15T17:16:49.877Z,70.36
2017-09-15T17:19:22.410Z,70.43
2017-09-15T17:21:55.401Z,70.42
2017-09-15T17:24:28.397Z,70.42
2017-09-15T17:27:01.838Z,70.47
2017-09-15T17:29:34.769Z,70.31
2017-09-15T17:32:08.472Z,70.42
2017-09-15T17:34:42.771Z,70.46
2017-09-15T17:37:15.093Z,70.51
2017-09-15T17:39:47.705Z,70.45
2017-09-15T17:42:20.546Z,70.29
2017-09-15T17:44:52.720Z,70.46
2017-09-15T17:47:27.953Z,70.60
2017-09-15T17:50:00.388Z,70.59
2017-09-15T17:52:37.444Z,70.53
2017-09-15T17:55:15.651Z,70.57
2017-09-15T17:57:49.734Z,70.56
2017-09-15T18:00:19.153Z,70.59
2017-09-15T18:02:49.612Z,70.64
2017-09-15T18:05:19.906Z,70.63
2017-09-15T18:07:51.744Z,70.77
2017-09-15T18:10:23.455Z,70.79
2017-09-15T18:12:55.856Z,70.87
2017-09-15T18:15:28.039Z,70.81
2017-09-15T18:18:01.545Z,70.78
2017-09-15T18:20:32.622Z,70.78
2017-09-15T18:23:05.128Z,70.82
2017-09-15T18:25:37.755Z,70.79
2017-09-15T18:28:08.012Z,70.89
2017-09-15T18:30:40.257Z,70.96
2017-09-15T18:33:11.464Z,70.98
2017-09-15T18:35:49.387Z,71.05
2017-09-15T18:38:21.483Z,71.07
2017-09-15T18:40:53.460Z,71.09
2017-09-15T18:43:26.095Z,71.17
2017-09-15T18:45:59.173Z,71.19
2017-09-15T18:48:30.230Z,71.23
2017-09-15T18:51:03.934Z,71.34
2017-09-15T18:53:36.756Z,71.38
2017-09-15T18:56:10.511Z,71.44
2017-09-15T18:58:42.094Z,71.51
2017-09-15T19:01:16.995Z,71.54
2017-09-15T19:03:48.680Z,71.59
2017-09-15T19:06:20.444Z,71.67
2017-09-15T19:08:52.933Z,71.69
2017-09-15T19:11:23.742Z,71.73
2017-09-15T19:13:57.177Z,71.77
2017-09-15T19:16:30.327Z,71.84
2017-09-15T19:19:04.168Z,71.91
2017-09-15T19:21:36.708Z,72.01
2017-09-15T19:24:08.684Z,72.04
2017-09-15T19:26:44.743Z,72.06
2017-09-15T19:29:18.829Z,72.07
2017-09-15T19:31:51.439Z,72.10
2017-09-15T19:34:23.387Z,72.22
2017-09-15T19:37:03.346Z,72.23
2017-09-15T19:39:35.703Z,72.33
2017-09-15T19:42:10.797Z,72.34
2017-09-15T19:44:43.452Z,72.43
2017-09-15T19:47:20.888Z,72.47
2017-09-15T19:49:51.808Z,72.52
2017-09-15T19:52:25.224Z,72.59
2017-09-15T19:54:56.766Z,72.62
2017-09-15T19:57:32.882Z,72.65
2017-09-15T20:00:06.506Z,72.66
2017-09-15T20:02:38.374Z,72.69
2017-09-15T20:05:09.892Z,72.71
2017-09-15T20:07:43.401Z,72.75
2017-09-15T20:10:15.514Z,72.78
2017-09-15T20:12:47.564Z,72.85
2017-09-15T20:15:20.281Z,72.84
2017-09-15T20:17:55.455Z,72.83
2017-09-15T20:20:29.460Z,72.91
2017-09-15T20:23:01.834Z,72.90
2017-09-15T20:25:33.727Z,72.97
2017-09-15T20:28:05.846Z,73.01
2017-09-15T20:30:37.531Z,73.00
2017-09-15T20:33:10.317Z,73.00
2017-09-15T20:35:43.694Z,73.08
2017-09-15T20:38:17.479Z,73.10
2017-09-15T20:40:50.135Z,73.09
2017-09-15T20:43:22.175Z,73.17
2017-09-15T20:45:53.395Z,73.18
2017-09-15T20:48:25.693Z,73.16
2017-09-15T20:50:56.858Z,73.19
2017-09-15T20:53:29.122Z,73.23
2017-09-15T20:56:02.657Z,73.29
2017-09-15T20:58:39.127Z,73.36
2017-09-15T21:01:12.321Z,73.36
2017-09-15T21:03:45.298Z,73.38
2017-09-15T21:06:17.414Z,73.47
2017-09-15T21:08:49.442Z,73.41
2017-09-15T21:11:19.839Z,73.43
2017-09-15T21:13:51.507Z,73.49
2017-09-15T21:16:22.536Z,73.54
2017-09-15T21:18:52.291Z,73.58
2017-09-15T21:21:26.278Z,73.63
2017-09-15T21:23:59.455Z,73.66
2017-09-15T21:26:30.639Z,73.67
2017-09-15T21:29:05.724Z,73.70
2017-09-15T21:31:38.738Z,73.73
2017-09-15T21:34:10.514Z,73.72
2017-09-15T21:36:42.385Z,73.77
2017-09-15T21:39:16.437Z,73.78
2017-09-15T21:41:48.216Z,73.81
2017-09-15T21:44:22.800Z,73.80
2017-09-15T21:46:56.280Z,73.86
2017-09-15T21:49:28.953Z,73.83
2017-09-15T21:52:03.033Z,73.90
2017-09-15T21:54:36.026Z,73.91
2017-09-15T21:57:08.527Z,73.95
2017-09-15T21:59:39.214Z,73.94
2017-09-15T22:02:18.375Z,73.97
2017-09-15T22:04:49.623Z,73.98
2017-09-15T22:07:21.175Z,74.00
2017-09-15T22:09:52.923Z,74.03
2017-09-15T22:12:23.716Z,74.08
2017-09-15T22:14:55.846Z,74.12
2017-09-15T22:17:28.352Z,74.14
2017-09-15T22:20:02.663Z,74.14
2017-09-15T22:22:34.193Z,74.18
2017-09-15T22:25:05.935Z,74.19
2017-09-15T22:27:36.545Z,74.21
2017-09-15T22:30:08.165Z,74.22
2017-09-15T22:32:38.619Z,74.27
2017-09-15T22:35:10.570Z,74.33
2017-09-15T22:37:44.314Z,74.32
2017-09-15T22:40:16.784Z,74.34
2017-09-15T22:42:50.170Z,74.40
2017-09-15T22:45:22.366Z,74.41
2017-09-15T22:47:53.691Z,74.39
2017-09-15T22:50:25.666Z,74.39
2017-09-15T22:52:58.076Z,74.45
2017-09-15T22:55:32.182Z,74.42
2017-09-15T22:58:07.881Z,74.49
2017-09-15T23:00:42.680Z,74.48
2017-09-15T23:03:14.159Z,74.51
2017-09-15T23:05:47.585Z,74.54
2017-09-15T23:08:20.427Z,74.50
2017-09-15T23:10:51.649Z,74.53
2017-09-15T23:13:22.730Z,74.55
2017-09-15T23:15:55.435Z,74.56
2017-09-15T23:18:27.841Z,74.55
2017-09-15T23:21:03.898Z,74.59
2017-09-15T23:23:36.287Z,74.61
2017-09-15T23:26:07.398Z,74.65
2017-09-15T23:28:39.981Z,74.65
2017-09-15T23:31:13.404Z,74.70
2017-09-15T23:33:46.621Z,74.71
2017-09-15T23:36:18.672Z,74.69
2017-09-15T23:38:50.853Z,74.74
2017-09-15T23:41:22.802Z,74.79
2017-09-15T23:43:51.447Z,74.78
2017-09-15T23:46:20.093Z,74.84
2017-09-15T23:48:50.814Z,74.87
2017-09-15T23:51:22.038Z,74.81
2017-09-15T23:53:52.944Z,74.86
2017-09-15T23:56:24.672Z,74.87
2017-09-15T23:58:57.498Z,74.92
